This is the latest recevied weather packets stored in our database for station/object kj4yre. If no packets are shown the sender has not sent any weather packets the latest 10 day(s).
| Time | Temp. | Humidity | Pressure | Rain* | Wind** | Luminosity | Snow |
|---|---|---|---|---|---|---|---|
| 1777712837 | 9.44° C | 100% | 1012.9 hPa | 0 mm | - | - | - |
| 1777712237 | 9.44° C | 100% | 1012.8 hPa | 0 mm | - | - | - |
| 1777711037 | 9.44° C | 100% | 1012.8 hPa | 0 mm | - | - | - |
| 1777708338 | 10° C | 100% | 1013 hPa | 0 mm | - | - | - |
| 1777707437 | 10.56° C | 100% | 1012.8 hPa | 0 mm | - | - | - |
| 1777706837 | 10.56° C | 99% | 1012.9 hPa | 0 mm | - | - | - |
| 1777706234 | 10.56° C | 100% | 1013 hPa | 0 mm | - | - | - |
| 1777702337 | 10.56° C | 96% | 1013.2 hPa | 0 mm | - | - | - |
| 1777699937 | 11.67° C | 92% | 1013.7 hPa | 0 mm | - | - | - |
| 1777696934 | 12.22° C | 89% | 1014.3 hPa | 0 mm | - | - | - |
| 1777696635 | 12.22° C | 89% | 1014.4 hPa | 0 mm | - | - | - |
| 1777695435 | 12.78° C | 88% | 1014.3 hPa | 0 mm | - | - | - |
| 1777694837 | 12.78° C | 88% | 1014.4 hPa | 0 mm | - | - | - |
| 1777691837 | 12.78° C | 87% | 1014 hPa | 0 mm | - | - | - |
| 1777691536 | 12.78° C | 86% | 1014 hPa | 0 mm | - | - | - |
| 1777690936 | 12.78° C | 86% | 1013.8 hPa | 0 mm | - | - | - |
| 1777690037 | 12.78° C | 85% | 1014 hPa | 0 mm | - | - | - |
| 1777689736 | 12.78° C | 85% | 1014.1 hPa | 0 mm | - | - | - |
| 1777689435 | 12.22° C | 86% | 1014.2 hPa | 0 mm | - | - | - |
| 1777687936 | 10.56° C | 89% | 1014 hPa | 0 mm | - | - | - |
| 1777687335 | 10.56° C | 91% | 1014 hPa | 0 mm | - | - | - |
| 1777683736 | 12.22° C | 81% | 1013.7 hPa | 0 mm | - | - | - |
| 1777683437 | 12.78° C | 79% | 1013.5 hPa | 0 mm | - | - | - |
| 1777682237 | 13.33° C | 77% | 1013.1 hPa | 0 mm | - | - | - |
| 1777681936 | 13.33° C | 77% | 1013.1 hPa | 0 mm | - | - | - |
* Rain latest hour (hover to see other rain measurements)
** Current wind speed in m/s (hover to see current wind gust speed)